sensor_id;sensor_type;location;lat;lon;timestamp;pressure;altitude;pressure_sealevel;temperature;humidity
77351;BME280;66420;50.246;14.320;2023-04-25T00:02:34;98839.91;;;7.58;72.71
77351;BME280;66420;50.246;14.320;2023-04-25T00:05:19;98837.00;;;7.55;72.92
77351;BME280;66420;50.246;14.320;2023-04-25T00:08:04;98837.09;;;7.50;72.48
77351;BME280;66420;50.246;14.320;2023-04-25T00:10:49;98836.31;;;7.49;73.18
77351;BME280;66420;50.246;14.320;2023-04-25T00:13:33;98835.13;;;7.42;72.89
77351;BME280;66420;50.246;14.320;2023-04-25T00:16:18;98839.44;;;7.43;72.69
77351;BME280;66420;50.246;14.320;2023-04-25T00:19:03;98836.22;;;7.41;72.84
77351;BME280;66420;50.246;14.320;2023-04-25T00:21:48;98836.91;;;7.46;72.28
77351;BME280;66420;50.246;14.320;2023-04-25T00:24:33;98837.84;;;7.42;72.59
77351;BME280;66420;50.246;14.320;2023-04-25T00:27:18;98843.88;;;7.39;72.55
77351;BME280;66420;50.246;14.320;2023-04-25T00:30:03;98842.38;;;7.33;72.78
77351;BME280;66420;50.246;14.320;2023-04-25T00:32:48;98846.22;;;7.32;73.08
77351;BME280;66420;50.246;14.320;2023-04-25T00:35:33;98842.38;;;7.33;72.75
77351;BME280;66420;50.246;14.320;2023-04-25T00:38:18;98845.31;;;7.36;73.28
77351;BME280;66420;50.246;14.320;2023-04-25T00:41:05;98843.59;;;7.27;73.26
77351;BME280;66420;50.246;14.320;2023-04-25T00:43:51;98836.53;;;7.26;73.14
77351;BME280;66420;50.246;14.320;2023-04-25T00:46:36;98839.56;;;7.24;73.36
77351;BME280;66420;50.246;14.320;2023-04-25T00:49:21;98836.63;;;7.21;73.40
77351;BME280;66420;50.246;14.320;2023-04-25T00:52:06;98834.84;;;7.16;73.59
77351;BME280;66420;50.246;14.320;2023-04-25T00:58:26;98841.50;;;7.24;73.29
77351;BME280;66420;50.246;14.320;2023-04-25T01:01:11;98839.38;;;7.21;73.33
77351;BME280;66420;50.246;14.320;2023-04-25T01:03:58;98830.31;;;7.11;73.78
77351;BME280;66420;50.246;14.320;2023-04-25T01:06:44;98828.81;;;7.05;73.96
77351;BME280;66420;50.246;14.320;2023-04-25T01:09:30;98831.53;;;7.05;74.10
77351;BME280;66420;50.246;14.320;2023-04-25T01:12:16;98825.06;;;7.01;73.98
77351;BME280;66420;50.246;14.320;2023-04-25T01:15:01;98822.94;;;6.98;74.26
77351;BME280;66420;50.246;14.320;2023-04-25T01:17:46;98824.16;;;6.92;74.77
77351;BME280;66420;50.246;14.320;2023-04-25T01:20:31;98828.09;;;6.86;74.49
77351;BME280;66420;50.246;14.320;2023-04-25T01:23:16;98821.75;;;6.77;74.83
77351;BME280;66420;50.246;14.320;2023-04-25T01:26:02;98827.19;;;6.77;74.72
77351;BME280;66420;50.246;14.320;2023-04-25T01:28:47;98825.28;;;6.78;74.67
77351;BME280;66420;50.246;14.320;2023-04-25T01:31:33;98822.66;;;6.73;74.95
77351;BME280;66420;50.246;14.320;2023-04-25T01:34:19;98821.94;;;6.67;75.04
77351;BME280;66420;50.246;14.320;2023-04-25T01:37:04;98816.59;;;6.62;75.18
77351;BME280;66420;50.246;14.320;2023-04-25T01:39:49;98825.19;;;6.69;74.64
77351;BME280;66420;50.246;14.320;2023-04-25T01:42:37;98829.09;;;6.63;74.94
77351;BME280;66420;50.246;14.320;2023-04-25T01:45:22;98819.59;;;6.60;75.16
77351;BME280;66420;50.246;14.320;2023-04-25T01:48:11;98819.84;;;6.64;74.59
77351;BME280;66420;50.246;14.320;2023-04-25T01:50:56;98825.38;;;6.59;75.04
77351;BME280;66420;50.246;14.320;2023-04-25T01:53:42;98822.66;;;6.59;75.02
77351;BME280;66420;50.246;14.320;2023-04-25T01:56:31;98828.66;;;6.56;75.09
77351;BME280;66420;50.246;14.320;2023-04-25T01:59:18;98829.38;;;6.48;75.37
77351;BME280;66420;50.246;14.320;2023-04-25T02:02:04;98825.84;;;6.47;75.51
77351;BME280;66420;50.246;14.320;2023-04-25T02:04:49;98822.41;;;6.42;75.76
77351;BME280;66420;50.246;14.320;2023-04-25T02:07:34;98816.75;;;6.38;75.61
77351;BME280;66420;50.246;14.320;2023-04-25T02:10:19;98824.19;;;6.33;76.11
77351;BME280;66420;50.246;14.320;2023-04-25T02:13:04;98816.94;;;6.28;76.28
77351;BME280;66420;50.246;14.320;2023-04-25T02:15:49;98815.50;;;6.17;77.01
77351;BME280;66420;50.246;14.320;2023-04-25T02:18:34;98813.91;;;6.16;76.72
77351;BME280;66420;50.246;14.320;2023-04-25T02:21:21;98810.88;;;6.17;76.48
77351;BME280;66420;50.246;14.320;2023-04-25T02:24:06;98813.91;;;6.16;76.69
77351;BME280;66420;50.246;14.320;2023-04-25T02:26:50;98804.94;;;6.15;76.58
77351;BME280;66420;50.246;14.320;2023-04-25T02:29:35;98802.00;;;6.12;77.00
77351;BME280;66420;50.246;14.320;2023-04-25T02:32:21;98807.97;;;6.14;77.19
77351;BME280;66420;50.246;14.320;2023-04-25T02:35:06;98803.91;;;6.11;77.00
77351;BME280;66420;50.246;14.320;2023-04-25T02:37:51;98811.06;;;6.07;76.78
77351;BME280;66420;50.246;14.320;2023-04-25T02:40:36;98808.41;;;6.02;77.92
77351;BME280;66420;50.246;14.320;2023-04-25T02:43:21;98807.47;;;5.93;77.22
77351;BME280;66420;50.246;14.320;2023-04-25T02:46:07;98802.66;;;5.90;77.35
77351;BME280;66420;50.246;14.320;2023-04-25T02:48:52;98809.03;;;5.99;77.67
77351;BME280;66420;50.246;14.320;2023-04-25T02:51:37;98798.72;;;5.96;77.69
77351;BME280;66420;50.246;14.320;2023-04-25T02:54:21;98802.88;;;5.94;78.23
77351;BME280;66420;50.246;14.320;2023-04-25T02:57:06;98803.97;;;5.93;77.97
77351;BME280;66420;50.246;14.320;2023-04-25T02:59:51;98797.78;;;5.87;78.39
77351;BME280;66420;50.246;14.320;2023-04-25T03:02:35;98790.75;;;5.86;78.26
77351;BME280;66420;50.246;14.320;2023-04-25T03:05:20;98790.16;;;5.89;78.67
77351;BME280;66420;50.246;14.320;2023-04-25T03:08:05;98789.06;;;5.90;78.22
77351;BME280;66420;50.246;14.320;2023-04-25T03:10:50;98781.44;;;5.92;78.55
77351;BME280;66420;50.246;14.320;2023-04-25T03:13:36;98785.84;;;5.88;78.53
77351;BME280;66420;50.246;14.320;2023-04-25T03:16:21;98782.31;;;5.88;79.06
77351;BME280;66420;50.246;14.320;2023-04-25T03:19:06;98779.81;;;5.91;78.88
77351;BME280;66420;50.246;14.320;2023-04-25T03:21:50;98776.81;;;5.93;78.27
77351;BME280;66420;50.246;14.320;2023-04-25T03:24:35;98774.72;;;6.03;79.04
77351;BME280;66420;50.246;14.320;2023-04-25T03:27:21;98776.44;;;5.99;78.53
77351;BME280;66420;50.246;14.320;2023-04-25T03:30:05;98777.25;;;6.00;78.67
77351;BME280;66420;50.246;14.320;2023-04-25T03:32:51;98773.84;;;6.08;78.29
77351;BME280;66420;50.246;14.320;2023-04-25T03:35:36;98771.94;;;6.08;78.43
77351;BME280;66420;50.246;14.320;2023-04-25T03:38:20;98780.88;;;6.09;78.29
77351;BME280;66420;50.246;14.320;2023-04-25T03:41:04;98780.88;;;6.09;78.24
77351;BME280;66420;50.246;14.320;2023-04-25T03:43:49;98780.28;;;6.12;78.57
77351;BME280;66420;50.246;14.320;2023-04-25T03:46:34;98775.97;;;6.24;78.19
77351;BME280;66420;50.246;14.320;2023-04-25T03:49:19;98776.06;;;6.19;77.95
77351;BME280;66420;50.246;14.320;2023-04-25T03:52:04;98778.69;;;6.24;78.32
77351;BME280;66420;50.246;14.320;2023-04-25T03:54:49;98782.09;;;6.16;78.76
77351;BME280;66420;50.246;14.320;2023-04-25T03:57:34;98775.06;;;6.15;78.26
77351;BME280;66420;50.246;14.320;2023-04-25T04:00:18;98785.91;;;6.15;78.41
77351;BME280;66420;50.246;14.320;2023-04-25T04:03:03;98786.53;;;6.12;78.69
77351;BME280;66420;50.246;14.320;2023-04-25T04:05:48;98780.06;;;6.08;79.08
77351;BME280;66420;50.246;14.320;2023-04-25T04:08:33;98784.63;;;6.13;78.76
77351;BME280;66420;50.246;14.320;2023-04-25T04:11:18;98784.63;;;6.13;78.52
77351;BME280;66420;50.246;14.320;2023-04-25T04:14:02;98781.09;;;6.12;79.10
77351;BME280;66420;50.246;14.320;2023-04-25T04:16:47;98785.72;;;6.12;79.03
77351;BME280;66420;50.246;14.320;2023-04-25T04:19:32;98782.91;;;6.17;79.19
77351;BME280;66420;50.246;14.320;2023-04-25T04:22:17;98787.13;;;6.09;79.42
77351;BME280;66420;50.246;14.320;2023-04-25T04:25:02;98792.16;;;6.16;78.72
77351;BME280;66420;50.246;14.320;2023-04-25T04:27:47;98787.41;;;6.08;79.43
77351;BME280;66420;50.246;14.320;2023-04-25T04:30:32;98793.94;;;6.07;79.43
77351;BME280;66420;50.246;14.320;2023-04-25T04:33:17;98785.88;;;6.02;79.20
77351;BME280;66420;50.246;14.320;2023-04-25T04:36:04;98786.28;;;5.95;79.72
77351;BME280;66420;50.246;14.320;2023-04-25T04:38:49;98798.16;;;5.99;79.69
77351;BME280;66420;50.246;14.320;2023-04-25T04:41:33;98790.00;;;5.99;79.81
77351;BME280;66420;50.246;14.320;2023-04-25T04:47:59;98787.28;;;5.99;80.13
77351;BME280;66420;50.246;14.320;2023-04-25T04:50:44;98788.59;;;6.02;80.83
77351;BME280;66420;50.246;14.320;2023-04-25T04:53:32;98787.72;;;6.06;79.67
77351;BME280;66420;50.246;14.320;2023-04-25T04:56:16;98789.72;;;6.14;80.00
77351;BME280;66420;50.246;14.320;2023-04-25T04:59:01;98786.94;;;6.19;80.02
77351;BME280;66420;50.246;14.320;2023-04-25T05:01:47;98788.25;;;6.22;80.68
77351;BME280;66420;50.246;14.320;2023-04-25T05:04:31;98796.00;;;6.29;80.39
77351;BME280;66420;50.246;14.320;2023-04-25T05:07:16;98792.50;;;6.42;80.71
77351;BME280;66420;50.246;14.320;2023-04-25T05:10:00;98795.84;;;6.52;79.17
77351;BME280;66420;50.246;14.320;2023-04-25T05:12:44;98792.03;;;6.53;79.00
77351;BME280;66420;50.246;14.320;2023-04-25T05:15:29;98791.63;;;6.60;78.76
77351;BME280;66420;50.246;14.320;2023-04-25T05:18:13;98788.78;;;6.65;78.99
77351;BME280;66420;50.246;14.320;2023-04-25T05:20:58;98793.66;;;6.68;78.11
77351;BME280;66420;50.246;14.320;2023-04-25T05:23:43;98794.03;;;6.75;77.67
77351;BME280;66420;50.246;14.320;2023-04-25T05:26:28;98792.66;;;6.78;78.00
77351;BME280;66420;50.246;14.320;2023-04-25T05:29:15;98794.66;;;6.86;78.26
77351;BME280;66420;50.246;14.320;2023-04-25T05:32:00;98793.44;;;6.92;77.07
77351;BME280;66420;50.246;14.320;2023-04-25T05:34:44;98797.44;;;7.22;75.72
77351;BME280;66420;50.246;14.320;2023-04-25T05:37:30;98790.94;;;7.45;74.96
77351;BME280;66420;50.246;14.320;2023-04-25T05:40:16;98788.16;;;7.58;75.17
77351;BME280;66420;50.246;14.320;2023-04-25T05:43:01;98788.69;;;7.61;75.07
77351;BME280;66420;50.246;14.320;2023-04-25T05:45:46;98790.34;;;7.70;76.02
77351;BME280;66420;50.246;14.320;2023-04-25T05:48:31;98795.66;;;7.75;75.93
77351;BME280;66420;50.246;14.320;2023-04-25T05:51:15;98796.81;;;7.74;74.96
77351;BME280;66420;50.246;14.320;2023-04-25T05:54:01;98786.91;;;7.78;75.94
77351;BME280;66420;50.246;14.320;2023-04-25T05:56:45;98784.66;;;7.80;76.03
77351;BME280;66420;50.246;14.320;2023-04-25T05:59:30;98781.25;;;7.75;76.97
77351;BME280;66420;50.246;14.320;2023-04-25T06:02:15;98784.00;;;7.61;76.65
77351;BME280;66420;50.246;14.320;2023-04-25T06:04:59;98789.84;;;7.68;76.51
77351;BME280;66420;50.246;14.320;2023-04-25T06:07:44;98791.22;;;7.79;76.37
77351;BME280;66420;50.246;14.320;2023-04-25T06:10:29;98781.50;;;7.87;76.59
77351;BME280;66420;50.246;14.320;2023-04-25T06:13:14;98786.16;;;7.86;76.25
77351;BME280;66420;50.246;14.320;2023-04-25T06:16:00;98781.19;;;7.88;75.88
77351;BME280;66420;50.246;14.320;2023-04-25T06:18:44;98789.13;;;7.98;76.88
77351;BME280;66420;50.246;14.320;2023-04-25T06:21:29;98780.34;;;8.01;75.86
77351;BME280;66420;50.246;14.320;2023-04-25T06:24:14;98785.03;;;8.10;77.33
77351;BME280;66420;50.246;14.320;2023-04-25T06:26:59;98777.72;;;8.19;77.03
77351;BME280;66420;50.246;14.320;2023-04-25T06:29:44;98779.69;;;8.27;76.56
77351;BME280;66420;50.246;14.320;2023-04-25T06:32:29;98783.59;;;8.34;76.21
77351;BME280;66420;50.246;14.320;2023-04-25T06:35:14;98783.88;;;8.55;76.10
77351;BME280;66420;50.246;14.320;2023-04-25T06:37:59;98783.41;;;8.62;75.11
77351;BME280;66420;50.246;14.320;2023-04-25T06:40:44;98778.63;;;8.67;74.21
77351;BME280;66420;50.246;14.320;2023-04-25T06:43:29;98772.44;;;8.84;75.18
77351;BME280;66420;50.246;14.320;2023-04-25T06:46:17;98772.94;;;8.95;74.31
77351;BME280;66420;50.246;14.320;2023-04-25T06:49:02;98764.13;;;8.98;73.07
77351;BME280;66420;50.246;14.320;2023-04-25T06:51:47;98777.00;;;9.14;72.92
77351;BME280;66420;50.246;14.320;2023-04-25T06:54:31;98775.41;;;9.30;72.46
77351;BME280;66420;50.246;14.320;2023-04-25T06:57:16;98775.91;;;9.24;71.65
77351;BME280;66420;50.246;14.320;2023-04-25T07:00:01;98775.38;;;9.13;72.11
77351;BME280;66420;50.246;14.320;2023-04-25T07:02:49;98776.34;;;9.09;71.78
77351;BME280;66420;50.246;14.320;2023-04-25T07:05:34;98775.50;;;9.00;71.89
77351;BME280;66420;50.246;14.320;2023-04-25T07:08:19;98775.19;;;8.93;71.57
77351;BME280;66420;50.246;14.320;2023-04-25T07:11:05;98766.63;;;8.85;72.34
77351;BME280;66420;50.246;14.320;2023-04-25T07:13:49;98767.75;;;8.84;71.56
77351;BME280;66420;50.246;14.320;2023-04-25T07:16:34;98768.56;;;8.85;71.43
77351;BME280;66420;50.246;14.320;2023-04-25T07:19:19;98765.38;;;8.92;72.81
77351;BME280;66420;50.246;14.320;2023-04-25T07:22:04;98768.25;;;8.86;71.75
77351;BME280;66420;50.246;14.320;2023-04-25T07:24:49;98768.41;;;8.81;72.76
77351;BME280;66420;50.246;14.320;2023-04-25T07:27:34;98768.09;;;8.83;72.47
77351;BME280;66420;50.246;14.320;2023-04-25T07:30:19;98765.81;;;8.76;72.47
77351;BME280;66420;50.246;14.320;2023-04-25T07:33:04;98766.78;;;8.80;73.16
77351;BME280;66420;50.246;14.320;2023-04-25T07:35:48;98771.13;;;8.81;72.65
77351;BME280;66420;50.246;14.320;2023-04-25T07:38:34;98770.66;;;8.79;73.03
77351;BME280;66420;50.246;14.320;2023-04-25T07:41:19;98773.84;;;8.81;72.90
77351;BME280;66420;50.246;14.320;2023-04-25T07:44:04;98767.00;;;8.93;73.18
77351;BME280;66420;50.246;14.320;2023-04-25T07:46:49;98763.78;;;8.99;72.97
77351;BME280;66420;50.246;14.320;2023-04-25T07:49:34;98778.09;;;9.05;71.71
77351;BME280;66420;50.246;14.320;2023-04-25T07:52:19;98779.34;;;8.99;72.84
77351;BME280;66420;50.246;14.320;2023-04-25T07:55:04;98783.09;;;9.03;72.55
77351;BME280;66420;50.246;14.320;2023-04-25T07:57:49;98778.75;;;9.02;72.55
77351;BME280;66420;50.246;14.320;2023-04-25T08:00:34;98778.09;;;9.05;72.26
77351;BME280;66420;50.246;14.320;2023-04-25T08:03:19;98784.22;;;9.19;72.72
77351;BME280;66420;50.246;14.320;2023-04-25T08:06:05;98774.28;;;9.23;71.99
77351;BME280;66420;50.246;14.320;2023-04-25T08:08:51;98771.72;;;9.35;71.67
77351;BME280;66420;50.246;14.320;2023-04-25T08:11:36;98776.06;;;9.36;70.27
77351;BME280;66420;50.246;14.320;2023-04-25T08:14:21;98780.75;;;9.53;71.29
77351;BME280;66420;50.246;14.320;2023-04-25T08:17:06;98768.34;;;9.81;69.38
77351;BME280;66420;50.246;14.320;2023-04-25T08:19:51;98770.28;;;9.98;69.15
77351;BME280;66420;50.246;14.320;2023-04-25T08:22:35;98775.59;;;10.20;68.52
77351;BME280;66420;50.246;14.320;2023-04-25T08:25:20;98779.84;;;10.47;67.29
77351;BME280;66420;50.246;14.320;2023-04-25T08:28:06;98786.59;;;10.58;66.63
77351;BME280;66420;50.246;14.320;2023-04-25T08:30:50;98778.41;;;10.41;64.09
77351;BME280;66420;50.246;14.320;2023-04-25T08:33:35;98780.72;;;10.77;65.06
77351;BME280;66420;50.246;14.320;2023-04-25T08:36:20;98786.88;;;11.03;65.21
77351;BME280;66420;50.246;14.320;2023-04-25T08:39:05;98779.69;;;11.19;63.63
77351;BME280;66420;50.246;14.320;2023-04-25T08:41:50;98776.59;;;11.71;62.86
77351;BME280;66420;50.246;14.320;2023-04-25T08:44:35;98772.47;;;11.85;59.77
77351;BME280;66420;50.246;14.320;2023-04-25T08:47:21;98765.13;;;11.77;59.60
77351;BME280;66420;50.246;14.320;2023-04-25T08:50:07;98767.03;;;11.35;59.36
77351;BME280;66420;50.246;14.320;2023-04-25T08:52:53;98764.22;;;11.44;59.65
77351;BME280;66420;50.246;14.320;2023-04-25T08:55:41;98771.84;;;11.59;59.05
77351;BME280;66420;50.246;14.320;2023-04-25T08:58:27;98774.78;;;11.54;58.77
77351;BME280;66420;50.246;14.320;2023-04-25T09:01:12;98769.81;;;11.27;58.06
77351;BME280;66420;50.246;14.320;2023-04-25T09:03:57;98769.09;;;11.09;57.42
77351;BME280;66420;50.246;14.320;2023-04-25T09:06:42;98779.41;;;11.12;59.70
77351;BME280;66420;50.246;14.320;2023-04-25T09:09:26;98786.50;;;11.13;59.54
77351;BME280;66420;50.246;14.320;2023-04-25T09:12:11;98790.13;;;10.96;60.37
77351;BME280;66420;50.246;14.320;2023-04-25T09:15:07;98789.56;;;10.74;60.19
77351;BME280;66420;50.246;14.320;2023-04-25T09:17:56;98798.91;;;10.73;57.15
77351;BME280;66420;50.246;14.320;2023-04-25T09:20:42;98793.81;;;10.62;57.71
77351;BME280;66420;50.246;14.320;2023-04-25T09:23:27;98806.19;;;10.60;59.21
77351;BME280;66420;50.246;14.320;2023-04-25T09:26:17;98822.53;;;10.39;60.07
77351;BME280;66420;50.246;14.320;2023-04-25T09:29:06;98827.38;;;10.08;62.02
77351;BME280;66420;50.246;14.320;2023-04-25T09:31:51;98837.97;;;10.01;63.25
77351;BME280;66420;50.246;14.320;2023-04-25T09:34:44;98850.97;;;9.69;65.71
77351;BME280;66420;50.246;14.320;2023-04-25T09:37:30;98859.88;;;9.27;69.10
77351;BME280;66420;50.246;14.320;2023-04-25T09:40:15;98875.38;;;9.01;73.20
77351;BME280;66420;50.246;14.320;2023-04-25T09:42:59;98876.38;;;8.74;75.64
77351;BME280;66420;50.246;14.320;2023-04-25T09:45:45;98882.88;;;8.33;76.62
77351;BME280;66420;50.246;14.320;2023-04-25T09:48:30;98893.41;;;8.13;78.79
77351;BME280;66420;50.246;14.320;2023-04-25T09:51:14;98894.63;;;8.07;79.46
77351;BME280;66420;50.246;14.320;2023-04-25T09:53:59;98901.34;;;8.00;81.21
77351;BME280;66420;50.246;14.320;2023-04-25T09:56:45;98897.09;;;7.94;81.82
77351;BME280;66420;50.246;14.320;2023-04-25T09:59:34;98894.72;;;7.79;80.63
77351;BME280;66420;50.246;14.320;2023-04-25T10:02:23;98891.81;;;7.76;82.87
77351;BME280;66420;50.246;14.320;2023-04-25T10:05:10;98897.81;;;7.50;80.99
77351;BME280;66420;50.246;14.320;2023-04-25T10:07:55;98903.66;;;7.57;80.59
77351;BME280;66420;50.246;14.320;2023-04-25T10:10:41;98893.38;;;7.41;81.30
77351;BME280;66420;50.246;14.320;2023-04-25T10:13:26;98892.78;;;7.44;82.12
77351;BME280;66420;50.246;14.320;2023-04-25T10:16:12;98891.47;;;7.41;82.05
77351;BME280;66420;50.246;14.320;2023-04-25T10:18:58;98893.66;;;7.53;82.34
77351;BME280;66420;50.246;14.320;2023-04-25T10:21:55;98892.84;;;7.52;82.39
77351;BME280;66420;50.246;14.320;2023-04-25T10:24:43;98893.97;;;7.65;82.28
77351;BME280;66420;50.246;14.320;2023-04-25T10:27:28;98891.72;;;7.67;82.09
77351;BME280;66420;50.246;14.320;2023-04-25T10:30:14;98892.34;;;7.64;80.79
77351;BME280;66420;50.246;14.320;2023-04-25T10:32:59;98898.34;;;7.75;81.75
77351;BME280;66420;50.246;14.320;2023-04-25T10:35:45;98895.34;;;7.76;83.11
77351;BME280;66420;50.246;14.320;2023-04-25T10:38:30;98889.84;;;7.90;82.06
77351;BME280;66420;50.246;14.320;2023-04-25T10:41:17;98883.13;;;7.87;80.01
77351;BME280;66420;50.246;14.320;2023-04-25T10:44:03;98881.94;;;8.02;82.16
77351;BME280;66420;50.246;14.320;2023-04-25T10:46:49;98889.34;;;8.24;78.59
77351;BME280;66420;50.246;14.320;2023-04-25T10:49:41;98883.97;;;8.55;81.20
77351;BME280;66420;50.246;14.320;2023-04-25T10:52:27;98888.72;;;8.71;78.48
77351;BME280;66420;50.246;14.320;2023-04-25T10:55:12;98873.81;;;8.77;80.69
77351;BME280;66420;50.246;14.320;2023-04-25T10:57:57;98884.47;;;8.87;80.14
77351;BME280;66420;50.246;14.320;2023-04-25T11:00:41;98881.66;;;9.01;81.18
77351;BME280;66420;50.246;14.320;2023-04-25T11:03:26;98878.91;;;9.01;79.91
77351;BME280;66420;50.246;14.320;2023-04-25T11:09:35;98886.09;;;9.28;77.16
77351;BME280;66420;50.246;14.320;2023-04-25T11:12:20;98881.31;;;9.42;75.83
77351;BME280;66420;50.246;14.320;2023-04-25T11:15:06;98882.13;;;9.51;73.82
77351;BME280;66420;50.246;14.320;2023-04-25T11:17:55;98883.47;;;9.62;73.57
77351;BME280;66420;50.246;14.320;2023-04-25T11:20:43;98877.66;;;9.72;72.20
77351;BME280;66420;50.246;14.320;2023-04-25T11:23:29;98883.63;;;9.83;66.90
77351;BME280;66420;50.246;14.320;2023-04-25T11:26:14;98872.06;;;10.03;69.06
77351;BME280;66420;50.246;14.320;2023-04-25T11:29:00;98884.44;;;10.09;68.19
77351;BME280;66420;50.246;14.320;2023-04-25T11:31:45;98879.00;;;10.44;67.47
77351;BME280;66420;50.246;14.320;2023-04-25T11:34:31;98872.63;;;10.78;67.18
77351;BME280;66420;50.246;14.320;2023-04-25T11:37:17;98872.66;;;11.16;68.46
77351;BME280;66420;50.246;14.320;2023-04-25T11:40:06;98872.97;;;11.14;65.50
77351;BME280;66420;50.246;14.320;2023-04-25T11:42:51;98869.25;;;11.27;63.55
77351;BME280;66420;50.246;14.320;2023-04-25T11:45:37;98868.34;;;11.06;61.21
77351;BME280;66420;50.246;14.320;2023-04-25T11:48:21;98873.25;;;10.83;64.67
77351;BME280;66420;50.246;14.320;2023-04-25T11:51:06;98872.59;;;10.95;62.35
77351;BME280;66420;50.246;14.320;2023-04-25T11:53:51;98868.56;;;11.30;64.63
77351;BME280;66420;50.246;14.320;2023-04-25T11:56:36;98871.88;;;11.44;61.34
77351;BME280;66420;50.246;14.320;2023-04-25T11:59:25;98872.50;;;11.50;62.04
77351;BME280;66420;50.246;14.320;2023-04-25T12:02:24;98875.63;;;11.40;60.24
77351;BME280;66420;50.246;14.320;2023-04-25T12:05:11;98876.56;;;11.73;62.17
77351;BME280;66420;50.246;14.320;2023-04-25T12:07:56;98873.19;;;11.68;58.50
77351;BME280;66420;50.246;14.320;2023-04-25T12:10:43;98880.25;;;11.69;60.11
77351;BME280;66420;50.246;14.320;2023-04-25T12:13:28;98876.38;;;11.49;57.91
77351;BME280;66420;50.246;14.320;2023-04-25T12:16:14;98878.63;;;11.47;56.44
77351;BME280;66420;50.246;14.320;2023-04-25T12:18:59;98878.31;;;11.48;58.66
77351;BME280;66420;50.246;14.320;2023-04-25T12:21:44;98884.81;;;11.35;56.19
77351;BME280;66420;50.246;14.320;2023-04-25T12:24:29;98879.28;;;11.44;56.43
77351;BME280;66420;50.246;14.320;2023-04-25T12:27:16;98879.44;;;11.47;55.27
77351;BME280;66420;50.246;14.320;2023-04-25T12:30:03;98879.97;;;11.32;54.60
77351;BME280;66420;50.246;14.320;2023-04-25T12:32:48;98882.34;;;11.42;55.12
77351;BME280;66420;50.246;14.320;2023-04-25T12:35:33;98878.25;;;11.57;55.35
77351;BME280;66420;50.246;14.320;2023-04-25T12:38:28;98886.41;;;11.66;55.04
77351;BME280;66420;50.246;14.320;2023-04-25T12:41:14;98884.00;;;11.73;54.80
77351;BME280;66420;50.246;14.320;2023-04-25T12:43:59;98897.97;;;11.80;53.39
77351;BME280;66420;50.246;14.320;2023-04-25T12:46:44;98895.56;;;11.70;52.07
77351;BME280;66420;50.246;14.320;2023-04-25T12:49:30;98891.63;;;11.59;52.00
77351;BME280;66420;50.246;14.320;2023-04-25T12:52:15;98900.84;;;11.54;53.60
77351;BME280;66420;50.246;14.320;2023-04-25T12:55:00;98898.66;;;11.39;52.52
77351;BME280;66420;50.246;14.320;2023-04-25T12:57:45;98899.06;;;11.20;53.78
77351;BME280;66420;50.246;14.320;2023-04-25T13:00:30;98897.81;;;11.09;52.94
77351;BME280;66420;50.246;14.320;2023-04-25T13:03:15;98913.28;;;11.05;53.97
77351;BME280;66420;50.246;14.320;2023-04-25T13:06:00;98908.28;;;11.07;54.04
77351;BME280;66420;50.246;14.320;2023-04-25T13:08:45;98913.41;;;11.17;55.72
77351;BME280;66420;50.246;14.320;2023-04-25T13:11:30;98908.59;;;11.14;53.12
77351;BME280;66420;50.246;14.320;2023-04-25T13:14:15;98918.31;;;11.03;53.86
77351;BME280;66420;50.246;14.320;2023-04-25T13:17:00;98919.78;;;10.92;51.92
77351;BME280;66420;50.246;14.320;2023-04-25T13:19:45;98925.75;;;10.94;52.64
77351;BME280;66420;50.246;14.320;2023-04-25T13:22:29;98927.16;;;11.00;52.58
77351;BME280;66420;50.246;14.320;2023-04-25T13:25:14;98928.75;;;11.01;52.83
77351;BME280;66420;50.246;14.320;2023-04-25T13:28:01;98943.09;;;11.06;54.01
77351;BME280;66420;50.246;14.320;2023-04-25T13:30:46;98941.16;;;11.07;53.62
77351;BME280;66420;50.246;14.320;2023-04-25T13:33:32;98941.19;;;10.98;54.99
77351;BME280;66420;50.246;14.320;2023-04-25T13:36:17;98940.38;;;10.98;54.54
77351;BME280;66420;50.246;14.320;2023-04-25T13:39:02;98936.34;;;11.04;56.41
77351;BME280;66420;50.246;14.320;2023-04-25T13:41:47;98936.81;;;11.06;54.31
77351;BME280;66420;50.246;14.320;2023-04-25T13:44:32;98934.22;;;11.09;53.12
77351;BME280;66420;50.246;14.320;2023-04-25T13:47:17;98943.06;;;11.15;53.71
77351;BME280;66420;50.246;14.320;2023-04-25T13:50:02;98944.19;;;11.14;51.97
77351;BME280;66420;50.246;14.320;2023-04-25T13:52:47;98946.22;;;11.34;53.79
77351;BME280;66420;50.246;14.320;2023-04-25T13:55:34;98945.84;;;11.44;51.73
77351;BME280;66420;50.246;14.320;2023-04-25T13:58:21;98951.75;;;11.55;51.29
77351;BME280;66420;50.246;14.320;2023-04-25T14:01:05;98954.81;;;11.62;52.33
77351;BME280;66420;50.246;14.320;2023-04-25T14:03:50;98969.09;;;11.38;50.85
77351;BME280;66420;50.246;14.320;2023-04-25T14:06:35;98945.72;;;11.41;51.65
77351;BME280;66420;50.246;14.320;2023-04-25T14:09:20;98971.19;;;11.33;53.14
77351;BME280;66420;50.246;14.320;2023-04-25T14:12:10;98964.44;;;11.30;51.58
77351;BME280;66420;50.246;14.320;2023-04-25T14:14:55;98974.31;;;11.14;52.11
77351;BME280;66420;50.246;14.320;2023-04-25T14:17:40;98972.41;;;11.06;54.18
77351;BME280;66420;50.246;14.320;2023-04-25T14:20:24;98982.22;;;11.07;54.41
77351;BME280;66420;50.246;14.320;2023-04-25T14:23:10;98978.19;;;11.04;55.08
77351;BME280;66420;50.246;14.320;2023-04-25T14:25:54;98981.16;;;10.74;54.57
77351;BME280;66420;50.246;14.320;2023-04-25T14:28:40;98990.66;;;10.76;56.03
77351;BME280;66420;50.246;14.320;2023-04-25T14:31:24;98988.25;;;10.75;56.15
77351;BME280;66420;50.246;14.320;2023-04-25T14:34:09;98994.19;;;10.68;54.73
77351;BME280;66420;50.246;14.320;2023-04-25T14:36:56;98993.56;;;10.54;53.83
77351;BME280;66420;50.246;14.320;2023-04-25T14:39:41;99002.75;;;10.49;54.51
77351;BME280;66420;50.246;14.320;2023-04-25T14:42:26;98993.72;;;10.57;56.22
77351;BME280;66420;50.246;14.320;2023-04-25T14:45:11;98999.81;;;10.54;56.44